Acton, Massachusetts
Current Conditions -  °F | °C
As of 2:56 AM on Saturday 22 Nov 2014 (Local Time) from KBED Reporting Station
Clear Clear  
Wind Chill: 14°   Ceiling: Unl
Heat Index: 22°   Visibility: 10mi
Dew Point: 10°   Wind: 6mph
Humidity: 60%   Direction: 220°SW
Pressure: 30.41"   Gusts: NA
Location:  42.49°N, 71.43°W
Report Text: KBED 220756Z AUTO 22005KT 10SM CLR M06/M12 A3041 RMK AO2 SLP315 T10561122 TSNO
Loading
Personal Weather Stations






























Interactive Weather Map New forecast layout! Learn more

10-Day Weather Forecast

Advertisements
Track Severe Weather on mobile